Time;durP1;ratioP1;P1;durP2;ratioP2;P2;SDS_P1;SDS_P2;PMS_P1;PMS_P2;Temp;Humidity;BMP_temperature;BMP_pressure;BME280_temperature;BME280_humidity;BME280_pressure;Samples;Min_cycle;Max_cycle;Signal;HPM_P1;HPM_P2
2021/07/25 00:00:35;;;;;;;5.30;4.88;;;20.30;99.90;;;;;;5073721;28;20215;-72
2021/07/25 00:03:04;;;;;;;6.65;4.47;;;20.20;99.90;;;;;;5073234;28;20763;-71
2021/07/25 00:05:31;;;;;;;5.03;4.55;;;20.20;99.90;;;;;;5073311;28;20272;-77
2021/07/25 00:07:58;;;;;;;6.93;4.10;;;20.20;99.90;;;;;;5073410;28;20630;-75
2021/07/25 00:10:25;;;;;;;4.38;3.97;;;20.30;99.90;;;;;;5073249;28;20252;-76
2021/07/25 00:12:52;;;;;;;3.42;3.17;;;20.40;99.90;;;;;;5073004;28;20210;-76
2021/07/25 00:15:19;;;;;;;4.38;3.97;;;20.30;99.90;;;;;;5072839;28;20202;-76
2021/07/25 00:17:46;;;;;;;8.05;3.20;;;20.40;99.90;;;;;;5072960;28;20267;-75
2021/07/25 00:20:15;;;;;;;4.65;3.50;;;20.30;99.90;;;;;;5072713;28;20256;-74
2021/07/25 00:22:42;;;;;;;3.22;2.92;;;20.20;99.90;;;;;;5073436;28;20238;-72
2021/07/25 00:25:13;;;;;;;3.92;3.15;;;20.30;99.90;;;;;;5072891;28;20256;-76
2021/07/25 00:27:42;;;;;;;3.58;2.53;;;20.30;99.90;;;;;;5073001;28;20202;-77
2021/07/25 00:30:10;;;;;;;3.58;3.03;;;20.20;99.90;;;;;;5072831;28;20210;-77
2021/07/25 00:32:37;;;;;;;2.92;2.63;;;20.20;99.90;;;;;;5073195;28;20214;-74
2021/07/25 00:35:05;;;;;;;3.65;2.45;;;20.20;99.90;;;;;;5073076;28;20198;-75
2021/07/25 00:37:34;;;;;;;5.68;2.70;;;20.10;99.90;;;;;;5072620;28;20666;-75
2021/07/25 00:40:01;;;;;;;4.97;3.00;;;20.10;99.90;;;;;;5072996;28;20205;-75
2021/07/25 00:42:38;;;;;;;5.18;2.95;;;20.10;99.90;;;;;;5072601;28;20237;-75
2021/07/25 00:45:06;;;;;;;3.13;2.38;;;20.10;99.90;;;;;;5072723;28;20267;-76
2021/07/25 00:47:35;;;;;;;3.67;3.30;;;19.90;99.90;;;;;;5072779;28;20696;-73
2021/07/25 00:50:03;;;;;;;3.20;2.78;;;19.90;99.90;;;;;;5072607;28;20207;-73
2021/07/25 00:52:31;;;;;;;3.35;2.55;;;19.80;99.90;;;;;;5072343;28;20214;-78
2021/07/25 00:55:00;;;;;;;2.85;2.55;;;19.80;99.90;;;;;;5071521;28;20658;-73
2021/07/25 00:57:28;;;;;;;6.20;3.00;;;19.80;99.90;;;;;;5071911;28;20206;-77
2021/07/25 00:59:55;;;;;;;4.07;2.25;;;19.90;99.90;;;;;;5072203;28;20669;-76
2021/07/25 01:02:25;;;;;;;5.93;2.97;;;19.90;99.90;;;;;;5072374;28;20237;-74
2021/07/25 01:05:03;;;;;;;3.45;2.97;;;20.00;99.90;;;;;;5072524;28;20210;-73
2021/07/25 01:07:34;;;;;;;2.95;2.50;;;20.00;99.90;;;;;;5071804;28;20271;-75
2021/07/25 01:10:06;;;;;;;2.50;2.30;;;19.90;99.90;;;;;;5072259;28;20251;-76
2021/07/25 01:12:37;;;;;;;4.90;2.67;;;19.90;99.90;;;;;;5071849;28;20206;-75
2021/07/25 01:15:05;;;;;;;4.03;2.65;;;19.90;99.90;;;;;;5072498;28;20202;-76
2021/07/25 01:17:33;;;;;;;2.88;2.30;;;20.00;99.90;;;;;;5072153;28;20202;-74
2021/07/25 01:20:03;;;;;;;3.42;2.03;;;19.90;99.90;;;;;;5072074;28;20207;-75
2021/07/25 01:22:32;;;;;;;3.78;2.83;;;19.80;99.90;;;;;;5071549;28;20241;-73
2021/07/25 01:25:00;;;;;;;4.03;2.80;;;19.80;99.90;;;;;;5071982;28;20275;-73
2021/07/25 01:27:32;;;;;;;2.53;2.33;;;19.90;99.90;;;;;;5071694;28;20259;-74
2021/07/25 01:30:02;;;;;;;5.43;2.53;;;19.80;99.90;;;;;;5071488;28;20202;-75
2021/07/25 01:32:30;;;;;;;3.13;2.55;;;19.70;99.90;;;;;;5071392;28;20268;-73
2021/07/25 01:34:59;;;;;;;4.80;3.05;;;19.80;99.90;;;;;;5071513;28;20220;-75
2021/07/25 01:37:30;;;;;;;4.15;2.60;;;19.80;99.90;;;;;;5071745;28;20206;-75
2021/07/25 01:39:57;;;;;;;5.00;2.67;;;19.80;99.90;;;;;;5071554;28;20206;-75
2021/07/25 01:42:28;;;;;;;3.65;3.03;;;19.80;99.90;;;;;;5071194;28;20234;-75
2021/07/25 01:44:55;;;;;;;4.35;2.60;;;19.50;99.90;;;;;;5071654;28;20208;-73
2021/07/25 01:47:22;;;;;;;3.35;2.90;;;19.30;99.90;;;;;;5071195;28;20210;-74
2021/07/25 01:49:49;;;;;;;6.25;2.50;;;19.30;99.90;;;;;;5071744;28;20210;-76
2021/07/25 01:52:16;;;;;;;4.95;3.20;;;19.30;99.90;;;;;;5070743;28;20206;-76
2021/07/25 01:54:45;;;;;;;5.35;3.25;;;19.30;99.90;;;;;;5071451;28;20206;-76
2021/07/25 01:57:12;;;;;;;5.93;2.80;;;19.30;99.90;;;;;;5070775;28;20202;-74
2021/07/25 01:59:38;;;;;;;3.03;2.42;;;19.30;99.90;;;;;;5071300;28;20210;-73
2021/07/25 02:02:05;;;;;;;3.47;3.17;;;19.20;99.90;;;;;;5071392;28;20584;-74
2021/07/25 02:04:32;;;;;;;2.38;2.15;;;19.20;99.90;;;;;;5070604;28;20260;-76
2021/07/25 02:06:59;;;;;;;6.10;3.10;;;19.10;99.90;;;;;;5071018;28;20231;-75
2021/07/25 02:09:27;;;;;;;4.18;3.10;;;19.20;99.90;;;;;;5070759;28;20206;-75
2021/07/25 02:11:55;;;;;;;4.40;3.15;;;19.10;99.90;;;;;;5070913;28;20640;-76
2021/07/25 02:14:22;;;;;;;2.83;2.63;;;19.10;99.90;;;;;;5070638;28;20343;-74
2021/07/25 02:16:49;;;;;;;3.22;2.92;;;19.20;99.90;;;;;;5071417;28;20266;-76
2021/07/25 02:19:16;;;;;;;4.38;3.05;;;19.20;99.90;;;;;;5070579;28;20669;-73
2021/07/25 02:21:43;;;;;;;3.03;2.60;;;19.10;99.90;;;;;;5070723;28;20210;-73
2021/07/25 02:24:10;;;;;;;3.28;2.55;;;19.10;99.90;;;;;;5070600;28;20677;-72
2021/07/25 02:26:37;;;;;;;6.18;2.78;;;19.10;99.90;;;;;;5070635;28;20263;-76
2021/07/25 02:29:05;;;;;;;3.90;2.33;;;19.00;99.90;;;;;;5070982;28;20255;-74
2021/07/25 02:31:32;;;;;;;4.28;3.08;;;18.90;99.90;;;;;;5070210;28;20731;-75
2021/07/25 02:33:59;;;;;;;7.82;3.30;;;18.90;99.90;;;;;;5071118;28;20205;-75
2021/07/25 02:36:26;;;;;;;3.42;2.67;;;18.90;99.90;;;;;;5067892;28;20203;-75
2021/07/25 02:38:53;;;;;;;4.22;2.95;;;18.80;99.90;;;;;;5070708;28;20263;-75
2021/07/25 02:41:20;;;;;;;4.55;2.75;;;18.80;99.90;;;;;;5070073;28;20209;-75
2021/07/25 02:43:47;;;;;;;3.63;2.63;;;18.80;99.90;;;;;;5070487;28;20233;-74
2021/07/25 02:46:16;;;;;;;3.85;2.90;;;18.80;99.90;;;;;;5070230;28;20247;-75
2021/07/25 02:48:43;;;;;;;3.70;2.55;;;18.80;99.90;;;;;;5070790;28;20272;-72
2021/07/25 02:51:10;;;;;;;4.55;3.03;;;18.80;99.90;;;;;;5070008;28;20206;-73
2021/07/25 02:53:37;;;;;;;3.08;2.78;;;18.80;99.90;;;;;;5070732;28;20210;-74
2021/07/25 02:56:04;;;;;;;4.53;2.80;;;18.80;99.90;;;;;;5070448;28;20206;-75
2021/07/25 02:58:31;;;;;;;4.78;3.00;;;18.70;99.90;;;;;;5070293;28;20210;-74
2021/07/25 03:00:58;;;;;;;5.82;2.72;;;18.70;99.90;;;;;;5070736;28;20214;-74
2021/07/25 03:03:26;;;;;;;3.70;3.35;;;18.70;99.90;;;;;;5069931;28;20229;-73
2021/07/25 03:05:53;;;;;;;5.43;2.55;;;18.60;99.90;;;;;;5070343;28;20252;-73
2021/07/25 03:08:20;;;;;;;4.93;2.83;;;18.60;99.90;;;;;;5069665;28;20206;-72
2021/07/25 03:10:47;;;;;;;4.35;3.00;;;18.60;99.90;;;;;;5070114;28;20264;-73
2021/07/25 03:13:14;;;;;;;6.22;3.03;;;18.60;99.90;;;;;;5070058;28;20206;-73
2021/07/25 03:15:41;;;;;;;7.38;4.10;;;18.50;99.90;;;;;;5070313;28;20677;-73
2021/07/25 03:18:08;;;;;;;4.43;3.08;;;18.30;99.90;;;;;;5070639;28;20743;-73
2021/07/25 03:20:36;;;;;;;5.05;3.05;;;18.30;99.90;;;;;;5074914;28;20206;-75
2021/07/25 03:23:04;;;;;;;3.95;3.20;;;18.40;99.90;;;;;;5074674;28;20240;-74
2021/07/25 03:25:31;;;;;;;4.57;3.00;;;18.50;99.90;;;;;;5073370;28;20221;-74
2021/07/25 03:27:58;;;;;;;4.68;2.97;;;18.50;99.90;;;;;;5074295;28;21163;-73
2021/07/25 03:30:25;;;;;;;3.03;2.83;;;18.40;99.90;;;;;;5073785;28;20202;-74
2021/07/25 03:32:51;;;;;;;4.88;3.58;;;18.50;99.90;;;;;;5074279;28;20206;-74
2021/07/25 03:35:18;;;;;;;7.13;3.15;;;18.40;99.90;;;;;;5073812;28;20586;-74
2021/07/25 03:37:47;;;;;;;3.08;2.80;;;18.40;99.90;;;;;;5074109;28;20209;-73
2021/07/25 03:40:15;;;;;;;4.45;2.97;;;18.40;99.90;;;;;;5073398;28;20623;-74
2021/07/25 03:42:42;;;;;;;4.18;3.28;;;18.30;99.90;;;;;;5074189;28;20309;-73
2021/07/25 03:45:10;;;;;;;4.43;2.70;;;18.30;99.90;;;;;;5074044;28;20210;-74
2021/07/25 03:47:39;;;;;;;4.28;3.17;;;18.30;99.90;;;;;;5074274;28;20280;-74
2021/07/25 03:50:07;;;;;;;4.97;3.08;;;18.30;99.90;;;;;;5074363;28;20214;-74
2021/07/25 03:52:36;;;;;;;3.30;3.00;;;18.30;99.90;;;;;;5073389;28;20210;-76
2021/07/25 03:55:05;;;;;;;7.97;3.30;;;18.30;99.90;;;;;;5074568;28;20271;-75
2021/07/25 03:57:32;;;;;;;3.70;3.40;;;18.20;99.90;;;;;;5073365;28;20623;-76
2021/07/25 03:59:59;;;;;;;3.75;3.28;;;18.30;99.90;;;;;;5073890;28;20202;-74
2021/07/25 04:02:26;;;;;;;4.40;3.30;;;18.20;99.90;;;;;;5073408;28;20225;-76
2021/07/25 04:04:53;;;;;;;5.13;3.08;;;18.20;99.90;;;;;;5073449;28;20248;-76
2021/07/25 04:07:20;;;;;;;3.05;2.85;;;18.30;99.90;;;;;;5073215;28;20247;-74
2021/07/25 04:09:47;;;;;;;3.60;2.95;;;18.30;99.90;;;;;;5073481;28;20297;-75
2021/07/25 04:12:16;;;;;;;3.17;2.83;;;18.20;99.90;;;;;;5073386;28;20210;-76
2021/07/25 04:14:43;;;;;;;4.68;3.53;;;18.30;99.90;;;;;;5073182;28;20210;-75
2021/07/25 04:17:10;;;;;;;5.80;3.05;;;18.20;99.90;;;;;;5073131;28;20598;-75
2021/07/25 04:19:37;;;;;;;4.85;3.35;;;18.30;99.90;;;;;;5073483;28;20210;-76
2021/07/25 04:22:04;;;;;;;3.90;3.60;;;18.30;99.90;;;;;;5075570;28;20235;-75
2021/07/25 04:24:31;;;;;;;3.95;3.65;;;18.30;99.90;;;;;;5072468;28;20654;-76
2021/07/25 04:26:58;;;;;;;4.03;3.63;;;18.20;99.90;;;;;;5072920;28;20693;-76
2021/07/25 04:29:27;;;;;;;4.15;3.75;;;18.20;99.90;;;;;;5072744;28;20651;-76
2021/07/25 04:31:55;;;;;;;4.00;3.25;;;18.20;99.90;;;;;;5072977;28;20210;-75
2021/07/25 04:34:24;;;;;;;5.90;3.45;;;18.20;99.90;;;;;;5072703;28;20745;-76
2021/07/25 04:36:51;;;;;;;4.60;4.05;;;18.30;99.90;;;;;;5072622;28;20210;-75
2021/07/25 04:39:19;;;;;;;3.90;3.60;;;18.20;99.90;;;;;;5072755;28;20236;-76
2021/07/25 04:41:51;;;;;;;6.90;3.95;;;18.20;99.90;;;;;;5072728;28;20206;-76
2021/07/25 04:44:25;;;;;;;3.10;2.80;;;18.20;99.90;;;;;;5072199;28;20782;-76
2021/07/25 04:46:56;;;;;;;4.60;3.90;;;18.10;99.90;;;;;;5072745;28;20202;-76
2021/07/25 04:49:27;;;;;;;5.55;3.95;;;18.10;99.90;;;;;;5072278;28;20207;-74
2021/07/25 04:51:56;;;;;;;3.25;2.95;;;18.20;99.90;;;;;;5072786;28;20206;-75
2021/07/25 04:54:26;;;;;;;3.60;3.28;;;18.20;99.90;;;;;;5072202;28;20202;-74
2021/07/25 04:57:00;;;;;;;4.10;3.60;;;18.20;99.90;;;;;;5072729;28;20206;-75
2021/07/25 04:59:29;;;;;;;3.42;3.13;;;18.20;99.90;;;;;;5071993;28;20322;-74
2021/07/25 05:02:03;;;;;;;4.20;3.17;;;18.20;99.90;;;;;;5072727;28;20213;-74
2021/07/25 05:04:31;;;;;;;3.88;2.88;;;18.30;99.90;;;;;;5071779;28;20638;-73
2021/07/25 05:06:59;;;;;;;3.83;3.53;;;18.20;99.90;;;;;;5072274;28;20255;-73
2021/07/25 05:09:26;;;;;;;4.60;3.17;;;18.30;99.90;;;;;;5071838;28;20206;-73
2021/07/25 05:11:55;;;;;;;3.25;2.95;;;18.30;99.90;;;;;;5072757;28;20202;-75
2021/07/25 05:14:29;;;;;;;4.80;2.95;;;18.30;99.90;;;;;;5071962;28;20660;-76
2021/07/25 05:17:04;;;;;;;4.90;2.78;;;18.30;99.90;;;;;;5072419;28;20201;-74
2021/07/25 05:19:49;;;;;;;3.58;3.10;;;18.30;99.90;;;;;;5071632;28;20205;-75
2021/07/25 05:22:32;;;;;;;3.58;3.15;;;18.40;99.90;;;;;;5072008;28;20206;-73
2021/07/25 05:25:03;;;;;;;4.22;2.92;;;18.30;99.90;;;;;;5072009;28;20222;-73
2021/07/25 05:27:38;;;;;;;3.97;3.10;;;18.50;99.90;;;;;;5071667;28;20633;-74
2021/07/25 05:30:06;;;;;;;7.05;3.13;;;18.50;99.90;;;;;;5072138;28;20205;-73
2021/07/25 05:32:35;;;;;;;3.85;3.08;;;18.60;99.90;;;;;;5071638;28;20206;-73
2021/07/25 05:35:02;;;;;;;3.97;3.47;;;18.60;99.90;;;;;;5071756;28;20252;-74
2021/07/25 05:37:29;;;;;;;4.55;2.63;;;18.70;99.90;;;;;;5071826;28;20210;-74
2021/07/25 05:39:55;;;;;;;3.58;2.50;;;18.80;99.90;;;;;;5071869;28;20263;-74
2021/07/25 05:42:22;;;;;;;3.60;3.00;;;18.80;99.90;;;;;;5070922;28;20202;-74
2021/07/25 05:44:49;;;;;;;5.25;2.78;;;18.80;99.90;;;;;;5071521;28;20657;-74
2021/07/25 05:47:16;;;;;;;3.28;2.92;;;18.80;99.90;;;;;;5071466;28;20206;-75
2021/07/25 05:49:45;;;;;;;3.17;2.83;;;18.80;99.90;;;;;;5071657;28;20251;-74
2021/07/25 05:52:12;;;;;;;3.72;3.05;;;18.80;99.90;;;;;;5071133;28;20210;-75
2021/07/25 05:54:39;;;;;;;3.47;3.03;;;18.90;99.90;;;;;;5071703;28;20267;-74
2021/07/25 05:57:06;;;;;;;4.78;2.20;;;19.00;99.90;;;;;;5071892;28;20207;-76
2021/07/25 05:59:33;;;;;;;5.85;2.67;;;19.00;99.90;;;;;;5070796;28;20260;-74
2021/07/25 06:02:02;;;;;;;2.97;2.53;;;19.10;99.90;;;;;;5071379;28;20206;-74
2021/07/25 06:04:29;;;;;;;4.10;3.05;;;19.10;99.90;;;;;;5070817;28;20238;-77
2021/07/25 06:06:57;;;;;;;3.38;2.45;;;19.10;99.90;;;;;;5071613;28;20206;-74
2021/07/25 06:09:24;;;;;;;3.60;2.70;;;19.30;99.90;;;;;;5070708;28;20259;-76
2021/07/25 06:11:51;;;;;;;3.45;2.92;;;19.40;99.90;;;;;;5071206;28;20256;-75
2021/07/25 06:14:18;;;;;;;4.75;3.15;;;19.60;99.90;;;;;;5070680;28;20209;-82
2021/07/25 06:16:45;;;;;;;3.75;3.03;;;19.60;99.90;;;;;;5070929;28;20243;-79
2021/07/25 06:19:12;;;;;;;2.90;2.65;;;19.80;99.90;;;;;;5070386;28;20279;-81
2021/07/25 06:21:39;;;;;;;4.35;3.05;;;19.80;99.90;;;;;;5071081;28;20243;-79
2021/07/25 06:24:08;;;;;;;2.90;2.60;;;19.90;99.90;;;;;;5071270;28;20226;-80
2021/07/25 06:26:35;;;;;;;3.90;2.40;;;19.90;99.90;;;;;;5070591;28;20641;-76
2021/07/25 06:29:02;;;;;;;5.18;2.83;;;19.90;99.90;;;;;;5071150;28;20210;-80
2021/07/25 06:31:29;;;;;;;3.20;2.90;;;19.90;99.90;;;;;;5070484;28;20263;-81
2021/07/25 06:33:56;;;;;;;4.40;2.50;;;19.90;99.90;;;;;;5071155;28;20206;-80
2021/07/25 06:36:24;;;;;;;3.47;2.58;;;20.10;99.90;;;;;;5070645;28;20210;-79
2021/07/25 06:38:51;;;;;;;4.28;2.40;;;20.30;99.90;;;;;;5070926;28;20202;-78
2021/07/25 06:41:19;;;;;;;3.22;2.40;;;20.50;99.90;;;;;;5070340;28;20206;-78
2021/07/25 06:43:46;;;;;;;3.67;2.28;;;20.60;99.90;;;;;;5070451;28;20226;-78
2021/07/25 06:46:13;;;;;;;4.15;2.40;;;20.60;99.90;;;;;;5070581;28;20252;-75
2021/07/25 06:48:40;;;;;;;3.25;2.35;;;20.60;99.90;;;;;;5070552;28;20214;-77
2021/07/25 06:51:07;;;;;;;5.72;3.08;;;20.70;99.90;;;;;;5070237;28;20202;-81
2021/07/25 06:53:34;;;;;;;2.70;2.42;;;20.60;99.90;;;;;;5077725;28;20267;-78
2021/07/25 06:56:05;;;;;;;4.18;2.30;;;20.70;99.90;;;;;;5078431;28;20363;-79
2021/07/25 06:58:33;;;;;;;2.85;2.35;;;20.70;99.90;;;;;;5076303;28;20205;-79
2021/07/25 07:01:00;;;;;;;4.20;2.47;;;20.80;99.90;;;;;;5070151;28;20686;-76
2021/07/25 07:03:27;;;;;;;4.03;2.13;;;21.00;99.90;;;;;;5069845;28;20226;-77
2021/07/25 07:05:54;;;;;;;2.00;1.90;;;21.10;99.90;;;;;;5070110;28;20198;-79
2021/07/25 07:08:23;;;;;;;5.22;2.55;;;20.90;99.90;;;;;;5069917;28;20263;-77
2021/07/25 07:10:50;;;;;;;2.75;2.45;;;21.00;99.90;;;;;;5070207;28;20212;-78
2021/07/25 07:13:18;;;;;;;3.45;1.92;;;21.10;99.90;;;;;;5069635;28;20206;-79
2021/07/25 07:15:48;;;;;;;2.42;2.22;;;21.20;99.90;;;;;;5070270;28;20202;-80
2021/07/25 07:18:16;;;;;;;3.10;2.33;;;21.10;99.90;;;;;;5070087;28;20202;-80
2021/07/25 07:20:43;;;;;;;3.78;2.45;;;21.20;99.90;;;;;;5069527;28;20267;-79
2021/07/25 07:23:12;;;;;;;2.65;2.38;;;21.40;99.90;;;;;;5069916;28;20259;-77
2021/07/25 07:25:41;;;;;;;5.13;3.38;;;21.40;99.90;;;;;;5070057;28;20735;-78
2021/07/25 07:28:08;;;;;;;3.67;2.20;;;21.60;99.90;;;;;;5069801;28;20201;-82
2021/07/25 07:30:36;;;;;;;3.25;2.40;;;22.00;99.90;;;;;;5069641;28;20743;-78
2021/07/25 07:33:09;;;;;;;4.90;2.47;;;22.50;99.90;;;;;;5079333;28;20260;-75
2021/07/25 07:35:36;;;;;;;2.28;2.08;;;22.80;99.90;;;;;;5068193;28;20218;-81
2021/07/25 07:38:03;;;;;;;2.72;2.45;;;22.80;99.90;;;;;;5069879;28;20203;-80
2021/07/25 07:40:30;;;;;;;3.42;2.80;;;22.50;99.90;;;;;;5068969;28;20279;-74
2021/07/25 07:42:58;;;;;;;2.25;2.05;;;22.20;99.90;;;;;;5069190;28;20279;-76
2021/07/25 07:45:25;;;;;;;2.95;2.15;;;22.50;99.90;;;;;;5069402;28;20276;-75
2021/07/25 07:47:52;;;;;;;2.67;1.70;;;22.70;99.90;;;;;;5068664;28;20206;-76
2021/07/25 07:50:21;;;;;;;4.70;2.75;;;22.80;99.90;;;;;;5068959;28;20218;-75
2021/07/25 07:52:48;;;;;;;2.92;2.05;;;22.70;99.90;;;;;;5068181;28;20198;-76
2021/07/25 07:55:16;;;;;;;2.15;1.80;;;22.70;99.90;;;;;;5062211;28;20607;-79
2021/07/25 07:57:44;;;;;;;3.20;1.65;;;22.60;99.90;;;;;;5069831;28;20252;-79
2021/07/25 08:00:12;;;;;;;4.32;1.88;;;22.60;99.90;;;;;;5069503;28;20256;-76
2021/07/25 08:02:39;;;;;;;2.65;2.03;;;22.90;99.90;;;;;;5069245;28;20248;-72
2021/07/25 08:05:07;;;;;;;1.70;1.60;;;23.30;99.90;;;;;;5072100;28;20230;-78
2021/07/25 08:07:35;;;;;;;3.90;1.73;;;23.20;99.90;;;;;;5073630;28;20252;-82
2021/07/25 08:10:02;;;;;;;3.83;2.35;;;23.10;99.90;;;;;;5072876;28;20635;-75
2021/07/25 08:12:29;;;;;;;2.88;1.63;;;22.90;99.90;;;;;;5072227;28;20260;-76
2021/07/25 08:14:56;;;;;;;2.90;1.80;;;22.70;99.90;;;;;;5072905;28;20206;-74
2021/07/25 08:17:24;;;;;;;2.47;1.75;;;22.80;99.90;;;;;;5072754;28;20271;-75
2021/07/25 08:19:51;;;;;;;1.70;1.60;;;23.10;99.90;;;;;;5072856;28;20295;-76
2021/07/25 08:22:18;;;;;;;2.10;1.63;;;22.80;99.90;;;;;;5072030;28;20555;-77
2021/07/25 08:24:47;;;;;;;3.72;1.80;;;22.90;99.90;;;;;;5072862;28;20667;-76
2021/07/25 08:27:14;;;;;;;5.35;2.08;;;23.60;99.90;;;;;;5072695;28;20198;-81
2021/07/25 08:29:42;;;;;;;5.25;1.50;;;24.50;99.90;;;;;;5073095;28;20272;-76
2021/07/25 08:32:11;;;;;;;2.42;1.83;;;24.50;99.90;;;;;;5073214;28;20293;-77
2021/07/25 08:34:38;;;;;;;3.88;1.85;;;23.90;99.90;;;;;;5073074;28;20622;-81
2021/07/25 08:37:05;;;;;;;2.55;1.80;;;23.40;99.90;;;;;;5072987;28;20263;-80
2021/07/25 08:39:33;;;;;;;3.30;2.10;;;23.40;99.90;;;;;;5072805;28;20210;-77
2021/07/25 08:42:05;;;;;;;2.20;1.90;;;25.40;99.90;;;;;;5071934;28;20210;-79
2021/07/25 08:44:48;;;;;;;1.92;1.65;;;25.40;99.90;;;;;;5072411;28;20230;-82
2021/07/25 08:47:20;;;;;;;2.53;1.95;;;24.90;99.90;;;;;;5069751;28;20297;-79
2021/07/25 08:49:54;;;;;;;3.17;2.13;;;23.90;99.90;;;;;;5071657;28;20210;-80
2021/07/25 08:52:26;;;;;;;2.75;2.47;;;23.50;99.90;;;;;;5068653;28;20214;-80
2021/07/25 08:54:54;;;;;;;6.28;2.33;;;23.70;99.90;;;;;;5072495;28;20206;-76
2021/07/25 08:57:24;;;;;;;2.28;2.03;;;24.30;99.90;;;;;;5071907;28;20682;-76
2021/07/25 08:59:54;;;;;;;2.95;2.28;;;25.20;99.90;;;;;;5067429;28;20209;-77
2021/07/25 09:02:23;;;;;;;5.55;2.30;;;25.80;99.90;;;;;;5067087;28;20202;-76
2021/07/25 09:04:51;;;;;;;2.15;1.88;;;25.40;99.90;;;;;;5071379;28;20268;-75
2021/07/25 09:07:19;;;;;;;3.78;2.08;;;24.90;99.90;;;;;;5071523;28;20263;-75
2021/07/25 09:09:48;;;;;;;2.95;2.38;;;24.80;99.90;;;;;;5069640;28;20626;-73
2021/07/25 09:12:17;;;;;;;2.65;1.95;;;25.00;99.90;;;;;;5073147;28;20210;-75
2021/07/25 09:14:51;;;;;;;2.55;1.83;;;25.40;99.90;;;;;;5068567;28;20214;-75
2021/07/25 09:17:18;;;;;;;3.10;2.40;;;25.40;99.90;;;;;;5069871;28;20251;-75
2021/07/25 09:20:28;;;;;;;2.10;1.90;;;25.40;99.90;;;;;;5070425;28;20350;-75
2021/07/25 09:22:58;;;;;;;4.82;2.78;;;25.80;99.90;;;;;;5070073;28;20689;-75
2021/07/25 09:25:31;;;;;;;2.42;2.22;;;26.00;99.90;;;;;;5071300;28;20225;-74
2021/07/25 09:28:13;;;;;;;10.55;2.60;;;25.60;99.90;;;;;;5071683;28;20218;-75
2021/07/25 09:30:42;;;;;;;2.58;2.38;;;25.70;99.90;;;;;;5066911;28;20206;-75
2021/07/25 09:33:23;;;;;;;4.88;1.83;;;26.70;99.90;;;;;;5071613;28;20244;-74
2021/07/25 09:35:51;;;;;;;2.03;1.83;;;26.60;99.90;;;;;;5071546;28;20210;-75
2021/07/25 09:38:19;;;;;;;2.85;1.77;;;26.30;99.90;;;;;;5071217;28;20206;-74
2021/07/25 09:40:47;;;;;;;2.05;1.77;;;26.40;99.90;;;;;;5071613;28;20206;-75
2021/07/25 09:43:17;;;;;;;5.97;2.45;;;27.70;99.90;;;;;;5071497;28;20206;-75
2021/07/25 09:46:01;;;;;;;3.00;1.90;;;31.20;99.90;;;;;;5067849;28;20328;-75
2021/07/25 09:48:30;;;;;;;2.95;2.42;;;29.20;99.90;;;;;;5071117;28;20203;-75
2021/07/25 09:50:59;;;;;;;4.22;2.38;;;27.50;99.90;;;;;;5071574;28;20202;-75
2021/07/25 09:53:42;;;;;;;3.03;2.15;;;26.10;99.90;;;;;;5071431;28;20198;-75
2021/07/25 09:56:13;;;;;;;2.70;2.25;;;25.50;99.90;;;;;;5071268;28;20625;-75
2021/07/25 09:58:40;;;;;;;7.47;2.42;;;25.10;99.90;;;;;;5071677;28;20289;-76
2021/07/25 10:01:09;;;;;;;4.82;1.90;;;24.80;99.90;;;;;;5071319;28;20260;-74
2021/07/25 10:03:36;;;;;;;3.05;1.85;;;24.60;99.90;;;;;;5071653;28;20662;-75
2021/07/25 10:06:23;;;;;;;2.40;1.95;;;24.70;99.90;;;;;;5071782;28;20234;-76
2021/07/25 10:09:08;;;;;;;2.65;2.00;;;24.40;99.90;;;;;;5071288;28;20635;-75
2021/07/25 10:11:37;;;;;;;4.72;2.30;;;26.80;99.90;;;;;;5070987;28;20244;-76
2021/07/25 10:14:04;;;;;;;3.75;2.20;;;31.30;99.90;;;;;;5071623;28;20308;-75
2021/07/25 10:16:33;;;;;;;4.97;2.47;;;36.20;99.90;;;;;;5070702;28;20272;-75
2021/07/25 10:19:03;;;;;;;2.85;1.75;;;35.90;99.90;;;;;;5071415;28;20263;-75
2021/07/25 10:21:33;;;;;;;2.63;2.17;;;32.10;99.90;;;;;;5070576;28;20217;-75
2021/07/25 10:24:00;;;;;;;3.92;2.65;;;29.30;99.90;;;;;;5070947;28;20669;-75
2021/07/25 10:26:28;;;;;;;4.00;2.50;;;27.10;99.90;;;;;;5069820;28;20294;-75
2021/07/25 10:28:56;;;;;;;2.42;2.00;;;26.40;99.90;;;;;;5070892;28;20206;-75
2021/07/25 10:31:24;;;;;;;3.22;2.30;;;26.20;99.90;;;;;;5070695;28;20259;-75
2021/07/25 10:33:54;;;;;;;2.72;2.30;;;26.40;99.90;;;;;;5057306;28;20206;-75
2021/07/25 10:36:23;;;;;;;3.78;2.03;;;26.40;99.90;;;;;;5070532;28;20272;-75
2021/07/25 10:38:50;;;;;;;3.95;2.80;;;27.20;99.90;;;;;;5070152;28;20202;-75
2021/07/25 10:41:22;;;;;;;2.58;1.88;;;26.60;99.90;;;;;;5070463;28;20251;-74
2021/07/25 10:43:49;;;;;;;4.50;2.90;;;26.60;99.90;;;;;;5070523;28;20202;-75
2021/07/25 10:46:21;;;;;;;4.70;2.20;;;26.60;99.90;;;;;;5070391;28;20226;-76
2021/07/25 10:49:18;;;;;;;5.78;2.67;;;26.50;99.90;;;;;;5070590;28;20205;-75
2021/07/25 10:52:02;;;;;;;2.67;1.80;;;26.30;99.90;;;;;;5060216;28;20207;-75
2021/07/25 10:54:32;;;;;;;2.58;2.38;;;26.40;99.90;;;;;;5070008;28;20202;-75
2021/07/25 10:57:00;;;;;;;2.72;1.98;;;26.50;99.90;;;;;;5070723;28;20206;-75
2021/07/25 10:59:50;;;;;;;2.63;2.13;;;26.50;99.90;;;;;;5070098;28;20626;-74
2021/07/25 11:02:49;;;;;;;3.95;2.10;;;27.20;99.90;;;;;;5066146;28;20284;-75
2021/07/25 11:05:18;;;;;;;3.08;2.25;;;27.40;99.90;;;;;;5058775;28;20279;-75
2021/07/25 11:07:57;;;;;;;3.47;2.15;;;26.70;99.90;;;;;;5069819;28;20202;-75
2021/07/25 11:10:32;;;;;;;5.53;2.35;;;25.90;99.90;;;;;;5069706;28;20289;-75
2021/07/25 11:13:19;;;;;;;3.97;2.35;;;26.00;99.90;;;;;;5070217;28;20629;-75
2021/07/25 11:15:50;;;;;;;4.25;2.75;;;26.00;99.90;;;;;;5070523;28;20208;-74
2021/07/25 11:18:34;;;;;;;3.50;3.20;;;26.10;99.90;;;;;;5069472;28;20293;-75
2021/07/25 11:21:07;;;;;;;3.08;2.78;;;25.90;99.90;;;;;;5070349;28;20206;-74
2021/07/25 11:23:39;;;;;;;3.42;2.92;;;25.60;99.90;;;;;;5069980;28;20206;-75
2021/07/25 11:26:45;;;;;;;4.93;2.10;;;25.40;99.90;;;;;;5070348;28;20287;-74
2021/07/25 11:29:18;;;;;;;2.42;1.70;;;25.60;99.90;;;;;;5059665;28;20244;-75
2021/07/25 11:31:47;;;;;;;5.05;2.35;;;25.70;99.90;;;;;;5070033;28;20256;-77
2021/07/25 11:34:24;;;;;;;4.05;2.08;;;25.70;99.90;;;;;;5069904;28;20600;-75
2021/07/25 11:36:55;;;;;;;4.45;2.67;;;25.70;99.90;;;;;;5069676;28;20293;-74
2021/07/25 11:39:22;;;;;;;4.72;3.22;;;25.50;99.90;;;;;;5070049;28;20198;-75
2021/07/25 11:41:49;;;;;;;1.70;1.60;;;25.40;99.90;;;;;;5074054;28;20214;-74
2021/07/25 11:44:24;;;;;;;9.68;3.13;;;25.30;99.90;;;;;;5073899;28;20202;-75
2021/07/25 11:46:51;;;;;;;2.88;2.45;;;25.50;99.90;;;;;;5073784;28;20784;-75
2021/07/25 11:49:20;;;;;;;2.58;2.35;;;25.70;99.90;;;;;;5073217;28;20723;-74
2021/07/25 11:51:54;;;;;;;2.50;2.30;;;26.10;99.90;;;;;;5073402;28;20296;-74
2021/07/25 11:54:24;;;;;;;2.67;2.47;;;26.40;99.90;;;;;;5073466;28;20202;-75
2021/07/25 11:56:55;;;;;;;4.35;2.75;;;26.80;99.90;;;;;;5073928;28;20271;-75
2021/07/25 11:59:23;;;;;;;2.15;1.95;;;27.20;99.90;;;;;;5073151;28;20674;-75
2021/07/25 12:01:50;;;;;;;4.25;2.67;;;27.70;99.90;;;;;;5073618;28;20233;-75
2021/07/25 12:04:19;;;;;;;3.40;2.65;;;27.60;99.90;;;;;;5072726;28;20743;-75
2021/07/25 12:06:47;;;;;;;2.97;2.67;;;27.70;99.90;;;;;;5073370;28;20717;-75
2021/07/25 12:09:15;;;;;;;5.22;3.25;;;27.20;99.90;;;;;;5073421;28;20271;-74
2021/07/25 12:11:42;;;;;;;5.13;2.70;;;27.00;99.90;;;;;;5073600;28;20283;-74
2021/07/25 12:14:09;;;;;;;3.40;2.40;;;27.00;99.90;;;;;;5073553;28;20210;-74
2021/07/25 12:16:47;;;;;;;4.72;2.58;;;26.80;99.90;;;;;;5073260;28;20561;-74
2021/07/25 12:19:15;;;;;;;3.45;2.63;;;27.10;99.90;;;;;;5073219;28;20229;-74
2021/07/25 12:21:43;;;;;;;2.08;1.80;;;26.80;99.90;;;;;;5072927;28;20259;-74
2021/07/25 12:24:28;;;;;;;3.03;2.58;;;26.50;99.90;;;;;;5073284;28;20206;-74
2021/07/25 12:26:56;;;;;;;3.10;2.45;;;26.30;99.90;;;;;;5073010;28;20259;-75
2021/07/25 12:29:40;;;;;;;2.63;2.42;;;26.30;99.90;;;;;;5072786;28;20256;-75
2021/07/25 12:32:24;;;;;;;2.63;2.33;;;26.30;99.90;;;;;;5073279;28;20263;-74
2021/07/25 12:34:52;;;;;;;6.50;2.60;;;26.20;99.90;;;;;;5072669;28;20255;-74
2021/07/25 12:37:30;;;;;;;3.72;2.03;;;26.20;99.90;;;;;;5072587;28;20209;-74
2021/07/25 12:40:13;;;;;;;3.65;2.15;;;25.70;99.90;;;;;;5072950;28;20255;-75
2021/07/25 12:42:46;;;;;;;2.30;2.08;;;25.20;99.90;;;;;;5072973;28;20755;-74
2021/07/25 12:45:26;;;;;;;3.22;2.42;;;25.20;99.90;;;;;;5072234;28;20287;-75
2021/07/25 12:48:30;;;;;;;3.50;1.83;;;25.40;99.90;;;;;;5072732;28;20281;-75
2021/07/25 12:51:00;;;;;;;2.40;2.20;;;25.40;99.90;;;;;;5072132;28;20206;-74
2021/07/25 12:53:32;;;;;;;3.85;2.67;;;25.60;99.90;;;;;;5072226;28;20244;-74
2021/07/25 12:56:02;;;;;;;2.67;2.47;;;26.00;99.90;;;;;;5072695;28;20279;-74
2021/07/25 12:58:31;;;;;;;5.18;2.17;;;26.10;99.90;;;;;;5072346;28;20260;-74
2021/07/25 13:03:48;;;;;;;2.67;2.33;;;25.90;99.90;;;;;;5054858;28;20202;-73